Terminal Aerodrome Forecast
Issued by NWS

Home | Current Version | Previous Version | Text Only | Print | Product List | Glossary On
Versions: 1 2 3 4 5 6 7 8 9 10 11 12 13 14 15 16 17 18 19 20 21 22 23 24 25 26 27
000
FTUS41 KBOX 292330
TAFHYA
TAF
KHYA 292330Z 3000/3024 00000KT P6SM SCT150
     FM301000 16007KT 3SM -RASN OVC015
     FM301500 18007KT 2SM -RA BR OVC008
     FM301800 21004KT 1SM -RA BR OVC004
     FM302100 26008KT 2SM -RASN BR OVC006
     FM302300 29010G21KT P6SM OVC008=

USA.gov is the U.S. government's official web portal to all federal, state and local government web resources and services.